Time;durP1;ratioP1;P1;durP2;ratioP2;P2;SDS_P1;SDS_P2;PMS_P1;PMS_P2;Temp;Humidity;BMP_temperature;BMP_pressure;BME280_temperature;BME280_humidity;BME280_pressure;Samples;Min_cycle;Max_cycle;Signal;HPM_P1;HPM_P2
2022/10/10 00:01:39;;;;;;;9.57;8.43;;;;;;;7.25;82.52;101280.84;6334996;22;20014;-81
2022/10/10 00:04:05;;;;;;;10.55;9.00;;;;;;;7.20;82.59;101281.00;6335387;22;20223;-81
2022/10/10 00:06:30;;;;;;;9.77;8.73;;;;;;;7.19;83.33;101284.56;6308070;22;20015;-81
2022/10/10 00:08:55;;;;;;;10.43;8.60;;;;;;;7.11;83.41;101270.69;6334904;22;20319;-83
2022/10/10 00:11:22;;;;;;;11.98;8.40;;;;;;;7.16;83.30;101274.06;6334039;22;20010;-83
2022/10/10 00:13:49;;;;;;;9.43;8.20;;;;;;;7.15;83.64;101276.75;6336623;22;19999;-83
2022/10/10 00:16:14;;;;;;;10.88;8.82;;;;;;;7.12;83.48;101276.84;6333350;22;20002;-82
2022/10/10 00:18:41;;;;;;;11.38;8.85;;;;;;;7.08;83.75;101276.06;6335704;22;20075;-82
2022/10/10 00:21:07;;;;;;;9.20;8.30;;;;;;;7.09;83.86;101279.56;6337055;22;20432;-82
2022/10/10 00:23:33;;;;;;;11.73;8.77;;;;;;;6.99;84.23;101271.91;6338424;22;20010;-80
2022/10/10 00:25:58;;;;;;;9.68;8.55;;;;;;;6.99;84.45;101271.91;6336356;22;19998;-81
2022/10/10 00:28:24;;;;;;;9.50;8.55;;;;;;;6.94;84.46;101272.97;6335468;22;20029;-82
2022/10/10 00:30:49;;;;;;;10.00;8.95;;;;;;;6.90;84.81;101272.19;6335801;22;20002;-82
2022/10/10 00:33:14;;;;;;;10.90;9.32;;;;;;;6.92;84.80;101266.84;6334822;22;20598;-83
2022/10/10 00:35:40;;;;;;;10.50;9.00;;;;;;;6.91;84.83;101273.91;6335944;22;20010;-83
2022/10/10 00:38:05;;;;;;;10.20;9.07;;;;;;;6.84;85.02;101269.69;6334326;22;20382;-83
2022/10/10 00:40:31;;;;;;;10.00;8.80;;;;;;;6.88;85.08;101274.00;6336784;22;20434;-83
2022/10/10 00:42:57;;;;;;;10.02;8.80;;;;;;;6.82;84.92;101250.38;6307333;22;20491;-80
2022/10/10 00:45:30;;;;;;;10.43;8.70;;;;;;;6.82;85.12;101265.38;6335067;22;20045;-82
2022/10/10 00:48:30;;;;;;;10.05;8.73;;;;;;;6.83;84.76;101260.03;6336002;22;20003;-82
2022/10/10 00:51:16;;;;;;;10.48;8.93;;;;;;;6.77;84.81;101260.19;6336378;22;19998;-81
2022/10/10 00:53:50;;;;;;;10.63;9.07;;;;;;;6.74;85.59;101255.88;6336332;22;20059;-81
2022/10/10 00:56:20;;;;;;;10.95;8.98;;;;;;;6.71;85.43;101261.25;6336534;22;20003;-81
2022/10/10 00:58:49;;;;;;;9.85;8.85;;;;;;;6.67;85.99;101259.59;6339051;22;20521;-82
2022/10/10 01:01:14;;;;;;;10.73;8.88;;;;;;;6.63;86.37;101257.94;6309614;22;20083;-80
2022/10/10 01:03:40;;;;;;;9.88;8.93;;;;;;;6.63;85.85;101254.44;6354192;22;19991;-81
2022/10/10 01:06:05;;;;;;;11.48;9.63;;;;;;;6.62;86.21;101253.56;6362127;22;20036;-81
2022/10/10 01:08:31;;;;;;;10.07;8.63;;;;;;;6.58;86.48;101253.69;6335829;22;20014;-82
2022/10/10 01:11:31;;;;;;;11.65;9.68;;;;;;;6.58;86.46;101251.91;6333405;22;20032;-81
2022/10/10 01:14:35;;;;;;;12.20;9.48;;;;;;;6.52;87.23;101248.56;6341020;22;20009;-82
2022/10/10 01:17:18;;;;;;;11.17;9.23;;;;;;;6.55;87.25;101243.19;6184719;23;19993;-81
2022/10/10 01:20:22;;;;;;;13.55;10.10;;;;;;;6.52;87.44;101243.28;6185308;23;20378;-81
2022/10/10 01:23:24;;;;;;;10.75;9.63;;;;;;;6.48;87.59;101246.03;6161106;23;20033;-81
2022/10/10 01:26:17;;;;;;;10.85;8.95;;;;;;;6.51;87.45;101249.47;6183716;23;20009;-81
2022/10/10 01:28:54;;;;;;;10.45;8.85;;;;;;;6.48;88.07;101239.88;6182101;23;20008;-81
2022/10/10 01:31:23;;;;;;;12.73;10.02;;;;;;;6.46;88.30;101246.97;6180764;23;20109;-81
2022/10/10 01:34:26;;;;;;;13.30;10.00;;;;;;;6.44;88.39;101238.22;6181873;23;20136;-80
2022/10/10 01:37:05;;;;;;;12.90;9.65;;;;;;;6.43;88.77;101231.19;6152540;23;20017;-81
2022/10/10 01:39:41;;;;;;;10.63;8.73;;;;;;;6.41;89.02;101228.59;6152023;23;20005;-81
2022/10/10 01:42:17;;;;;;;11.23;9.13;;;;;;;6.41;88.82;101230.38;6150543;23;20010;-82
2022/10/10 01:44:44;;;;;;;10.68;9.55;;;;;;;6.41;88.91;101223.31;6151289;23;20032;-82
2022/10/10 01:47:10;;;;;;;11.90;9.50;;;;;;;6.42;89.13;101219.75;6151189;23;20005;-82
2022/10/10 01:49:36;;;;;;;10.13;8.55;;;;;;;6.32;89.37;101212.13;6152170;23;20021;-82
2022/10/10 01:52:21;;;;;;;11.00;9.48;;;;;;;6.41;89.64;101219.78;6233501;23;20008;-81
2022/10/10 01:55:09;;;;;;;11.90;9.57;;;;;;;6.37;89.73;101216.38;6241346;23;20008;-81
2022/10/10 01:57:43;;;;;;;12.50;9.48;;;;;;;6.35;89.28;101220.81;6216022;23;20125;-82
2022/10/10 02:00:11;;;;;;;10.10;8.98;;;;;;;6.35;89.51;101217.31;6240998;23;19988;-82
2022/10/10 02:02:54;;;;;;;13.20;9.52;;;;;;;6.31;89.28;101219.19;6215246;23;20066;-81
2022/10/10 02:05:41;;;;;;;10.80;9.27;;;;;;;6.30;89.28;101220.06;6239941;23;19997;-82
2022/10/10 02:08:11;;;;;;;12.82;10.00;;;;;;;6.24;89.81;101222.91;6241247;23;20012;-81
2022/10/10 02:10:53;;;;;;;11.27;9.45;;;;;;;6.20;89.84;101208.88;6278544;22;20014;-82
2022/10/10 02:13:22;;;;;;;13.85;9.32;;;;;;;6.23;89.52;101211.47;6337581;22;20265;-82
2022/10/10 02:15:52;;;;;;;9.77;8.68;;;;;;;6.21;89.39;101209.75;6336974;22;19991;-81
2022/10/10 02:18:21;;;;;;;12.85;9.57;;;;;;;6.15;89.68;101205.50;6336891;22;20176;-81
2022/10/10 02:20:49;;;;;;;10.43;9.30;;;;;;;6.15;89.92;101204.66;6336643;22;20009;-82
2022/10/10 02:23:15;;;;;;;10.75;9.60;;;;;;;6.10;90.12;101206.53;6335966;22;20308;-82
2022/10/10 02:25:44;;;;;;;12.13;8.93;;;;;;;6.11;89.92;101203.00;6336990;22;20003;-81
2022/10/10 02:28:22;;;;;;;10.68;9.57;;;;;;;6.05;89.98;101196.06;6336984;22;20220;-81
2022/10/10 02:30:51;;;;;;;13.00;9.18;;;;;;;6.05;90.29;101200.50;6337018;22;19998;-81
2022/10/10 02:33:22;;;;;;;11.75;8.95;;;;;;;5.98;90.30;101192.75;6337323;22;20508;-81
2022/10/10 02:35:49;;;;;;;10.80;8.88;;;;;;;6.01;89.92;101201.47;6309332;22;20007;-82
2022/10/10 02:38:17;;;;;;;15.43;9.05;;;;;;;5.91;90.57;101188.50;6337389;22;20078;-82
2022/10/10 02:40:44;;;;;;;11.10;9.05;;;;;;;5.91;90.36;101195.56;6339471;22;19999;-82
2022/10/10 02:43:11;;;;;;;10.65;9.35;;;;;;;5.87;90.44;101197.41;6349102;22;19999;-82
2022/10/10 02:45:38;;;;;;;11.88;9.23;;;;;;;5.85;90.83;101188.66;6352118;22;19999;-81
2022/10/10 02:48:03;;;;;;;11.30;9.30;;;;;;;5.85;90.72;101183.38;6323489;22;20033;-82
2022/10/10 02:50:30;;;;;;;11.30;9.50;;;;;;;5.78;90.97;101183.56;6340199;22;20417;-82
2022/10/10 02:52:56;;;;;;;14.70;10.52;;;;;;;5.85;91.59;101179.84;6339966;22;20072;-82
2022/10/10 02:55:21;;;;;;;15.68;9.82;;;;;;;5.83;91.59;101181.66;6336885;22;20416;-82
2022/10/10 02:57:47;;;;;;;12.45;10.38;;;;;;;5.78;91.92;101171.22;6338701;22;20036;-82
2022/10/10 03:00:13;;;;;;;13.15;10.07;;;;;;;5.79;92.26;101170.31;6310294;22;20094;-82
2022/10/10 03:02:38;;;;;;;13.05;9.48;;;;;;;5.78;92.48;101165.94;6310555;22;20082;-82
2022/10/10 03:05:04;;;;;;;11.77;10.10;;;;;;;5.75;92.64;101166.00;6335155;22;20503;-82
2022/10/10 03:07:29;;;;;;;12.43;10.45;;;;;;;5.69;92.46;101158.25;6338287;22;20003;-82
2022/10/10 03:09:55;;;;;;;12.23;10.20;;;;;;;5.79;92.65;101164.16;6337161;22;20030;-81
2022/10/10 03:12:20;;;;;;;14.10;10.75;;;;;;;5.70;92.82;101162.63;6337738;22;19998;-81
2022/10/10 03:14:46;;;;;;;15.15;10.40;;;;;;;5.70;93.37;101165.28;6309892;22;19999;-81
2022/10/10 03:17:11;;;;;;;11.95;9.93;;;;;;;5.67;93.16;101162.69;6308256;22;20443;-81
2022/10/10 03:19:37;;;;;;;11.90;9.93;;;;;;;5.74;93.24;101166.94;6335339;22;20089;-82
2022/10/10 03:22:02;;;;;;;15.13;10.25;;;;;;;5.67;93.59;101153.00;6335742;22;20052;-82
2022/10/10 03:24:27;;;;;;;14.00;10.35;;;;;;;5.66;93.81;101151.28;6335642;22;20332;-82
2022/10/10 03:26:53;;;;;;;13.02;10.98;;;;;;;5.63;93.58;101163.69;6308819;22;20505;-82
2022/10/10 03:29:18;;;;;;;12.65;10.30;;;;;;;5.66;94.28;101160.97;6336416;22;19983;-81
2022/10/10 03:31:44;;;;;;;12.15;10.00;;;;;;;5.64;94.18;101166.31;6309468;22;20003;-83
2022/10/10 03:34:09;;;;;;;12.48;10.45;;;;;;;5.64;94.32;101152.22;6334151;22;20104;-82
2022/10/10 03:36:35;;;;;;;11.77;10.27;;;;;;;5.61;94.22;101162.88;6337160;22;20006;-82
2022/10/10 03:39:00;;;;;;;11.60;10.40;;;;;;;5.54;94.63;101162.16;6336942;22;20056;-83
2022/10/10 03:41:25;;;;;;;11.25;10.05;;;;;;;5.49;94.47;101162.25;6337482;22;19998;-81
2022/10/10 03:43:51;;;;;;;13.00;10.95;;;;;;;5.49;95.11;101161.41;6351672;22;19991;-81
2022/10/10 03:46:16;;;;;;;14.50;10.27;;;;;;;5.45;94.95;101163.25;6360567;22;19987;-80
2022/10/10 03:48:42;;;;;;;12.02;9.60;;;;;;;5.48;95.00;101168.47;6360507;22;20071;-81
2022/10/10 03:51:07;;;;;;;12.75;10.30;;;;;;;5.46;95.48;101172.88;6325501;22;19995;-81
2022/10/10 03:53:33;;;;;;;13.32;10.77;;;;;;;5.39;94.81;101158.13;6341222;22;20034;-81
2022/10/10 03:55:58;;;;;;;12.80;9.98;;;;;;;5.41;95.22;101161.59;6342426;22;20003;-81
2022/10/10 03:58:23;;;;;;;12.02;10.13;;;;;;;5.39;95.04;101158.13;6341244;22;20339;-82
2022/10/10 04:01:02;;;;;;;11.48;10.23;;;;;;;5.35;95.67;101161.75;6340341;22;20051;-81
2022/10/10 04:03:28;;;;;;;12.90;10.63;;;;;;;5.40;96.03;101157.22;6312033;22;20030;-81
2022/10/10 04:05:54;;;;;;;13.88;10.88;;;;;;;5.44;96.46;101169.44;6340823;22;20002;-81
2022/10/10 04:08:20;;;;;;;13.20;10.32;;;;;;;5.41;96.06;101161.59;6338571;22;20003;-82
2022/10/10 04:10:53;;;;;;;13.38;11.35;;;;;;;5.44;96.79;101166.78;6335865;22;20037;-82
2022/10/10 04:13:19;;;;;;;15.55;11.88;;;;;;;5.47;96.59;101165.84;6336051;22;20021;-82
2022/10/10 04:15:45;;;;;;;14.25;11.30;;;;;;;5.44;96.89;101164.16;6336371;22;20056;-81
2022/10/10 04:18:11;;;;;;;13.68;11.60;;;;;;;5.47;96.72;101164.06;6336007;22;20014;-82
2022/10/10 04:20:36;;;;;;;14.63;11.55;;;;;;;5.44;96.86;101161.50;6337112;22;20429;-82
2022/10/10 04:23:02;;;;;;;16.95;12.23;;;;;;;5.46;96.59;101158.81;6308115;22;20051;-82
2022/10/10 04:25:27;;;;;;;14.48;10.75;;;;;;;5.45;97.15;101152.69;6335432;22;20052;-82
2022/10/10 04:27:52;;;;;;;12.75;11.05;;;;;;;5.50;97.57;101161.34;6335616;22;20335;-82
2022/10/10 04:30:18;;;;;;;16.08;12.32;;;;;;;5.48;97.43;101157.03;6334695;22;20048;-83
2022/10/10 04:32:43;;;;;;;19.42;12.50;;;;;;;5.49;97.68;101162.25;6336292;22;20011;-82
2022/10/10 04:35:08;;;;;;;14.00;11.95;;;;;;;5.53;98.10;101155.13;6334012;22;20006;-83
2022/10/10 04:37:34;;;;;;;16.00;12.02;;;;;;;5.54;98.03;101162.16;6335291;22;20508;-83
2022/10/10 04:39:59;;;;;;;12.90;11.60;;;;;;;5.56;98.31;101165.63;6308874;22;20037;-83
2022/10/10 04:42:25;;;;;;;13.63;10.77;;;;;;;5.51;98.25;101151.66;6334866;22;20370;-82
2022/10/10 04:44:50;;;;;;;13.70;10.75;;;;;;;5.50;98.13;101155.22;6335067;22;20033;-82
2022/10/10 04:47:15;;;;;;;13.00;10.80;;;;;;;5.46;97.88;101157.06;6335010;22;20225;-82
2022/10/10 04:49:41;;;;;;;13.25;11.85;;;;;;;5.45;97.91;101163.25;6335774;22;20007;-82
2022/10/10 04:52:08;;;;;;;14.70;11.90;;;;;;;5.45;98.10;101159.75;6306746;22;20006;-82
2022/10/10 04:54:33;;;;;;;12.95;11.38;;;;;;;5.41;98.26;101150.16;6334411;22;20007;-81
2022/10/10 04:56:59;;;;;;;12.77;11.02;;;;;;;5.40;98.04;101159.84;6335291;22;20007;-81
2022/10/10 04:59:24;;;;;;;15.00;12.10;;;;;;;5.33;97.95;101155.63;6306120;22;20041;-81
2022/10/10 05:01:49;;;;;;;13.48;11.63;;;;;;;5.33;98.05;101152.97;6335720;22;20451;-82
2022/10/10 05:04:15;;;;;;;13.50;12.02;;;;;;;5.30;98.49;101154.81;6334158;22;20042;-81
2022/10/10 05:06:41;;;;;;;14.88;12.57;;;;;;;5.24;98.25;101146.16;6336568;22;20055;-82
2022/10/10 05:09:06;;;;;;;17.35;12.80;;;;;;;5.27;98.74;101147.88;6336157;22;19998;-81
2022/10/10 05:11:31;;;;;;;15.75;12.90;;;;;;;5.23;98.72;101147.06;6337314;22;19987;-82
2022/10/10 05:13:57;;;;;;;17.38;13.38;;;;;;;5.23;99.26;101147.06;6337302;22;20010;-82
2022/10/10 05:16:22;;;;;;;16.92;13.52;;;;;;;5.24;100.00;101146.16;6334320;22;20277;-81
2022/10/10 05:18:47;;;;;;;17.00;12.95;;;;;;;5.28;100.00;101154.88;6335490;22;20090;-82
2022/10/10 05:21:12;;;;;;;15.43;12.60;;;;;;;5.27;100.00;101152.25;6335982;22;20006;-82
2022/10/10 05:23:40;;;;;;;15.68;12.52;;;;;;;5.29;100.00;101150.47;6335273;22;20490;-82
2022/10/10 05:26:05;;;;;;;15.95;13.05;;;;;;;5.26;100.00;101148.75;6308024;22;20003;-82
2022/10/10 05:28:30;;;;;;;17.52;13.30;;;;;;;5.23;100.00;101144.44;6337127;22;20439;-82
2022/10/10 05:30:56;;;;;;;15.52;12.82;;;;;;;5.19;100.00;101152.47;6337751;22;20011;-81
2022/10/10 05:33:21;;;;;;;16.15;13.35;;;;;;;5.17;100.00;101154.25;6336364;22;20007;-81
2022/10/10 05:35:46;;;;;;;14.45;12.38;;;;;;;5.17;100.00;101152.47;6335249;22;20476;-82
2022/10/10 05:38:12;;;;;;;16.42;13.60;;;;;;;5.20;100.00;101154.19;6337962;22;20006;-81
2022/10/10 05:40:41;;;;;;;15.35;13.70;;;;;;;5.22;100.00;101155.00;6335001;22;20007;-82
2022/10/10 05:43:06;;;;;;;16.25;12.63;;;;;;;5.26;100.00;101156.66;6337824;22;20007;-82
2022/10/10 05:45:32;;;;;;;15.15;13.15;;;;;;;5.22;100.00;101141.81;6336659;22;20006;-81
2022/10/10 05:47:57;;;;;;;16.05;13.45;;;;;;;5.26;100.00;101138.19;6337252;22;19999;-82
2022/10/10 05:50:33;;;;;;;15.95;12.40;;;;;;;5.32;100.00;101150.38;6335245;22;20507;-81
2022/10/10 05:52:58;;;;;;;15.00;11.73;;;;;;;5.37;100.00;101151.13;6309491;22;20029;-81
2022/10/10 05:55:24;;;;;;;15.05;11.43;;;;;;;5.35;100.00;101145.00;6307302;22;20009;-81
2022/10/10 05:57:49;;;;;;;13.38;10.70;;;;;;;5.38;100.00;101145.81;6308756;22;20011;-81
2022/10/10 06:00:14;;;;;;;14.20;11.90;;;;;;;5.40;100.00;101143.16;6334786;22;20055;-81
2022/10/10 06:02:40;;;;;;;16.08;10.95;;;;;;;5.44;100.00;101153.59;6335913;22;20173;-82
2022/10/10 06:05:05;;;;;;;13.18;11.30;;;;;;;5.40;100.00;101153.72;6333983;22;20412;-82
2022/10/10 06:07:31;;;;;;;13.90;11.20;;;;;;;5.35;100.00;101139.72;6334333;22;19998;-82
2022/10/10 06:09:56;;;;;;;15.02;13.00;;;;;;;5.37;100.00;101149.38;6333765;22;20007;-82
2022/10/10 06:12:21;;;;;;;14.27;11.45;;;;;;;5.37;100.00;101161.69;6309534;22;20383;-82
2022/10/10 06:14:47;;;;;;;13.85;10.68;;;;;;;5.42;100.00;101165.94;6336247;22;20007;-82
2022/10/10 06:17:12;;;;;;;13.05;10.40;;;;;;;5.46;100.00;101166.75;6305873;22;20042;-81
2022/10/10 06:19:37;;;;;;;14.65;11.02;;;;;;;5.46;100.00;101164.97;6336541;22;19998;-81
2022/10/10 06:22:03;;;;;;;15.95;10.88;;;;;;;5.47;100.00;101156.13;6313288;22;20006;-80
2022/10/10 06:24:28;;;;;;;12.18;10.63;;;;;;;5.53;100.00;101165.69;6344661;22;20009;-80
2022/10/10 06:26:54;;;;;;;15.95;10.73;;;;;;;5.52;100.00;101163.06;6344482;22;20645;-81
2022/10/10 06:29:19;;;;;;;15.07;11.50;;;;;;;5.58;100.00;101166.44;6343998;22;20522;-82
2022/10/10 06:31:44;;;;;;;12.50;9.88;;;;;;;5.63;100.00;101168.97;6349142;22;20010;-81
2022/10/10 06:34:09;;;;;;;13.23;10.60;;;;;;;5.66;100.00;101171.53;6346701;22;19987;-81
2022/10/10 06:36:35;;;;;;;13.98;10.07;;;;;;;5.69;100.00;101167.06;6343506;22;19991;-81
2022/10/10 06:39:00;;;;;;;14.43;11.18;;;;;;;5.71;100.00;101169.63;6342611;22;20106;-80
2022/10/10 06:41:25;;;;;;;14.13;11.63;;;;;;;5.70;100.00;101160.00;6339450;22;20006;-82
2022/10/10 06:43:51;;;;;;;15.23;10.50;;;;;;;5.70;100.00;101160.84;6336913;22;20003;-81
2022/10/10 06:46:16;;;;;;;15.98;11.18;;;;;;;5.70;100.00;101170.56;6338029;22;20041;-81
2022/10/10 06:48:42;;;;;;;13.70;9.88;;;;;;;5.77;100.00;101180.06;6338697;22;20439;-82
2022/10/10 06:51:12;;;;;;;14.88;11.25;;;;;;;5.73;100.00;101159.91;6337078;22;20335;-81
2022/10/10 06:53:37;;;;;;;16.05;11.63;;;;;;;5.80;100.00;101168.53;6337445;22;20054;-83
2022/10/10 06:56:03;;;;;;;15.02;11.95;;;;;;;5.88;100.00;101177.13;6340888;22;20003;-81
2022/10/10 06:58:29;;;;;;;14.57;10.93;;;;;;;5.89;100.00;101173.56;6344678;22;20006;-83
2022/10/10 07:00:58;;;;;;;17.42;12.18;;;;;;;5.99;100.00;101173.34;6344073;22;20312;-82
2022/10/10 07:03:24;;;;;;;17.17;11.68;;;;;;;6.01;100.00;101183.00;6336940;22;20028;-82
2022/10/10 07:05:52;;;;;;;16.92;13.73;;;;;;;6.10;100.00;101185.38;6338005;22;20032;-82
2022/10/10 07:08:18;;;;;;;18.33;12.95;;;;;;;6.12;100.00;101184.44;6336473;22;20034;-81
2022/10/10 07:10:43;;;;;;;223.55;30.35;;;;;;;6.22;100.00;101185.03;6337885;22;20109;-83
2022/10/10 07:13:08;;;;;;;63.42;17.52;;;;;;;6.30;100.00;101180.41;6338039;22;20452;-81
2022/10/10 07:15:34;;;;;;;21.52;12.80;;;;;;;6.33;100.00;101179.47;6308623;22;20128;-82
2022/10/10 07:17:59;;;;;;;15.98;13.07;;;;;;;6.44;100.00;101188.84;6337908;22;20003;-82
2022/10/10 07:20:26;;;;;;;16.88;12.10;;;;;;;6.53;100.00;101184.22;6338057;22;20071;-82
2022/10/10 07:22:51;;;;;;;16.98;11.43;;;;;;;6.63;100.00;101188.31;6308663;22;20015;-82
2022/10/10 07:25:17;;;;;;;15.82;12.27;;;;;;;6.77;100.00;101185.25;6308602;22;20332;-82
2022/10/10 07:27:42;;;;;;;14.38;11.82;;;;;;;6.96;100.00;101189.09;6338144;22;20026;-83
2022/10/10 07:30:08;;;;;;;13.43;11.18;;;;;;;7.07;100.00;101191.41;6336411;22;20010;-82
2022/10/10 07:32:33;;;;;;;14.05;11.98;;;;;;;7.23;100.00;101196.19;6337715;22;20002;-83
2022/10/10 07:34:58;;;;;;;14.88;11.07;;;;;;;7.38;100.00;101200.13;6338292;22;20006;-83
2022/10/10 07:37:24;;;;;;;18.00;11.15;;;;;;;7.47;100.00;101199.81;6337360;22;20017;-83
2022/10/10 07:39:51;;;;;;;15.82;11.25;;;;;;;7.65;100.00;101201.03;6338218;22;20165;-83
2022/10/10 07:42:17;;;;;;;14.60;10.50;;;;;;;7.74;100.00;101198.06;6308212;22;20003;-84
2022/10/10 07:44:42;;;;;;;14.48;11.07;;;;;;;7.92;100.00;101198.34;6335566;22;20527;-82
2022/10/10 07:47:08;;;;;;;14.55;10.85;;;;;;;8.05;100.00;101201.44;6308040;22;20010;-83
2022/10/10 07:49:33;;;;;;;11.98;10.57;;;;;;;8.20;100.00;101211.53;6335272;22;20370;-85
2022/10/10 07:51:58;;;;;;;16.75;10.45;;;;;;;8.36;100.00;101204.75;6336974;22;20029;-83
2022/10/10 07:54:24;;;;;;;13.40;9.95;;;;;;;8.48;100.00;101207.00;6307885;22;19999;-86
2022/10/10 07:56:49;;;;;;;13.57;9.18;;;;;;;8.61;100.00;101193.25;6337644;22;20003;-83
2022/10/10 07:59:14;;;;;;;11.32;8.68;;;;;;;8.78;100.00;101204.13;6335257;22;20023;-83
2022/10/10 08:01:39;;;;;;;13.10;8.70;;;;;;;8.93;100.00;101213.28;6336287;22;20026;-84
2022/10/10 08:04:05;;;;;;;13.13;8.77;;;;;;;9.06;100.00;101213.69;6336430;22;20079;-82
2022/10/10 08:06:30;;;;;;;12.18;8.75;;;;;;;9.24;99.46;101218.31;6309604;22;20416;-83
2022/10/10 08:08:55;;;;;;;17.70;9.00;;;;;;;9.38;99.22;101215.94;6338325;22;20143;-82
2022/10/10 08:11:21;;;;;;;12.35;8.00;;;;;;;9.56;98.52;101213.47;6338413;22;20016;-83
2022/10/10 08:13:46;;;;;;;14.25;8.57;;;;;;;9.73;97.58;101216.31;6337534;22;20007;-82
2022/10/10 08:16:12;;;;;;;15.52;7.90;;;;;;;9.94;96.85;101222.50;6337900;22;20001;-82
2022/10/10 08:18:37;;;;;;;13.75;8.40;;;;;;;10.14;96.03;101219.00;6338848;22;20013;-84
2022/10/10 08:21:06;;;;;;;10.95;8.07;;;;;;;10.28;95.05;101216.63;6308810;22;20128;-84
2022/10/10 08:23:32;;;;;;;16.73;7.85;;;;;;;10.42;95.00;101216.06;6311069;22;20010;-83
2022/10/10 08:25:59;;;;;;;12.57;7.03;;;;;;;10.60;93.92;101225.00;6338085;22;20010;-82
2022/10/10 08:28:25;;;;;;;10.70;7.38;;;;;;;10.71;92.94;101214.75;6338080;22;19999;-85
2022/10/10 08:30:50;;;;;;;14.07;7.93;;;;;;;10.81;92.89;101215.19;6338025;22;20061;-84
2022/10/10 08:33:16;;;;;;;14.05;7.68;;;;;;;10.92;92.66;101212.91;6337018;22;20055;-85
2022/10/10 08:35:41;;;;;;;10.32;7.40;;;;;;;11.06;92.13;101217.56;6311152;22;20002;-84
2022/10/10 08:38:07;;;;;;;12.60;7.30;;;;;;;11.23;90.98;101225.63;6337228;22;20003;-85
2022/10/10 08:40:41;;;;;;;12.95;7.63;;;;;;;11.40;90.82;101222.16;6337964;22;20333;-84
2022/10/10 08:43:08;;;;;;;12.13;7.07;;;;;;;11.51;89.40;101221.66;6335527;22;20333;-82
2022/10/10 08:45:37;;;;;;;11.07;7.18;;;;;;;11.62;88.79;101217.53;6310689;22;20014;-83
2022/10/10 08:48:09;;;;;;;15.10;6.68;;;;;;;11.79;87.71;101234.47;6338314;22;20003;-82
2022/10/10 08:51:00;;;;;;;14.40;7.05;;;;;;;12.10;86.96;101224.03;6339502;22;20029;-83
2022/10/10 08:53:33;;;;;;;14.27;7.05;;;;;;;12.67;84.94;101224.59;6338015;22;20374;-83
2022/10/10 08:56:00;;;;;;;13.35;6.28;;;;;;;13.59;82.22;101227.56;6340289;22;20090;-84
2022/10/10 08:58:31;;;;;;;11.18;6.03;;;;;;;14.88;76.35;101212.69;6341839;22;20015;-84
2022/10/10 09:01:12;;;;;;;10.68;5.75;;;;;;;16.08;71.76;101223.66;6321870;22;20029;-84
2022/10/10 09:03:40;;;;;;;9.65;5.53;;;;;;;16.61;66.43;101225.31;6361078;22;20014;-84
2022/10/10 09:06:20;;;;;;;10.07;5.07;;;;;;;17.07;66.21;101219.41;6362300;22;19986;-85
2022/10/10 09:08:48;;;;;;;8.88;4.78;;;;;;;18.37;61.43;101223.13;6360919;22;20014;-83
2022/10/10 09:11:21;;;;;;;8.95;4.55;;;;;;;19.61;59.70;101212.38;6348698;22;20048;-84
2022/10/10 09:14:05;;;;;;;10.65;4.40;;;;;;;20.93;56.10;101211.88;6321136;22;20003;-84
2022/10/10 09:16:39;;;;;;;10.25;4.40;;;;;;;21.46;52.44;101226.03;6349815;22;20041;-83
2022/10/10 09:19:47;;;;;;;8.43;4.07;;;;;;;21.98;53.75;101210.38;6315237;22;19982;-83
2022/10/10 09:22:18;;;;;;;9.27;4.15;;;;;;;21.85;48.21;101231.50;6314799;22;20007;-83
2022/10/10 09:24:50;;;;;;;6.00;4.05;;;;;;;22.25;47.36;101227.84;6343148;22;20446;-85
2022/10/10 09:27:23;;;;;;;10.35;3.45;;;;;;;21.60;47.18;101244.59;6340071;22;20006;-85
2022/10/10 09:30:16;;;;;;;8.75;3.80;;;;;;;21.34;52.11;101236.13;6338909;22;19994;-84
2022/10/10 09:32:49;;;;;;;7.65;4.10;;;;;;;20.95;49.53;101237.81;6339290;22;20339;-85
2022/10/10 09:35:29;;;;;;;7.80;3.97;;;;;;;20.75;51.32;101241.41;6338294;22;20030;-84
2022/10/10 09:38:29;;;;;;;8.07;3.30;;;;;;;21.22;50.99;101253.44;6309769;22;20006;-84
2022/10/10 09:41:04;;;;;;;7.05;3.70;;;;;;;22.08;48.12;101256.50;6337597;22;19999;-84
2022/10/10 09:43:33;;;;;;;9.50;3.50;;;;;;;22.22;47.19;101266.06;6309863;22;20052;-84
2022/10/10 09:45:59;;;;;;;10.10;3.83;;;;;;;22.08;45.99;101260.06;6338500;22;20055;-86
2022/10/10 09:48:37;;;;;;;6.07;3.22;;;;;;;22.03;47.15;101259.63;6337692;22;20011;-85
2022/10/10 09:51:04;;;;;;;8.73;3.58;;;;;;;22.43;45.61;101264.06;6337162;22;20094;-84
2022/10/10 09:53:30;;;;;;;6.15;3.55;;;;;;;22.66;43.69;101261.00;6336766;22;20045;-85
2022/10/10 09:55:55;;;;;;;6.75;4.00;;;;;;;22.30;45.32;101267.06;6338086;22;19986;-85
2022/10/10 09:58:39;;;;;;;7.45;3.30;;;;;;;21.15;47.17;101265.78;6337812;22;20014;-85
2022/10/10 10:01:20;;;;;;;7.90;4.15;;;;;;;20.24;50.38;101272.78;6338694;22;20427;-84
2022/10/10 10:04:06;;;;;;;8.30;3.60;;;;;;;19.61;51.93;101266.38;6338267;22;20071;-84
2022/10/10 10:06:32;;;;;;;6.35;3.42;;;;;;;19.17;53.24;101270.78;6338309;22;20193;-85
2022/10/10 10:09:03;;;;;;;10.15;3.70;;;;;;;18.97;53.96;101279.63;6339429;22;20005;-84
2022/10/10 10:11:38;;;;;;;7.07;3.67;;;;;;;19.09;53.35;101273.25;6338913;22;20319;-84
2022/10/10 10:14:04;;;;;;;7.25;3.25;;;;;;;19.24;53.81;101268.47;6338294;22;20034;-83
2022/10/10 10:16:38;;;;;;;9.15;3.65;;;;;;;19.08;53.42;101275.09;6337893;22;19999;-85
2022/10/10 10:19:06;;;;;;;8.48;3.28;;;;;;;18.39;54.96;101276.91;6337822;22;20017;-85
2022/10/10 10:21:45;;;;;;;8.40;3.30;;;;;;;18.03;56.72;101272.50;6337718;22;19999;-85
2022/10/10 10:24:27;;;;;;;8.77;3.50;;;;;;;17.91;57.49;101280.50;6336162;22;20006;-85
2022/10/10 10:26:53;;;;;;;11.82;3.60;;;;;;;18.06;57.48;101280.34;6308473;22;20432;-85
2022/10/10 10:29:28;;;;;;;8.27;3.20;;;;;;;18.99;56.22;101277.66;6337471;22;20010;-85
2022/10/10 10:32:03;;;;;;;6.63;3.40;;;;;;;19.57;53.60;101273.81;6336492;22;20328;-85
2022/10/10 10:34:51;;;;;;;7.45;3.88;;;;;;;19.76;53.02;101275.88;6337506;22;20003;-86
2022/10/10 10:37:19;;;;;;;9.07;3.40;;;;;;;19.55;53.15;101278.47;6335101;22;20067;-85
2022/10/10 10:39:54;;;;;;;8.43;3.38;;;;;;;19.31;53.66;101277.78;6335840;22;20021;-84
2022/10/10 10:42:25;;;;;;;7.15;3.20;;;;;;;18.97;54.82;101276.91;6335990;22;20078;-84
2022/10/10 10:45:15;;;;;;;6.47;3.92;;;;;;;18.83;56.26;101281.56;6337043;22;20002;-84
2022/10/10 10:48:12;;;;;;;9.07;3.63;;;;;;;18.90;56.03;101288.22;6262982;22;20002;-83
2022/10/10 10:50:52;;;;;;;7.45;3.50;;;;;;;18.85;55.64;101293.13;6337299;22;20328;-83
2022/10/10 10:53:51;;;;;;;6.63;3.70;;;;;;;19.08;56.52;101298.50;6335829;22;20056;-84
2022/10/10 10:56:29;;;;;;;7.85;3.30;;;;;;;19.75;54.38;101297.63;6336498;22;20213;-85
2022/10/10 10:59:30;;;;;;;6.43;3.30;;;;;;;20.39;53.19;101294.94;6336703;22;20324;-84
2022/10/10 11:02:13;;;;;;;10.50;3.55;;;;;;;20.03;52.54;101298.91;6336631;22;20006;-84
2022/10/10 11:05:00;;;;;;;8.80;3.20;;;;;;;19.75;52.00;101292.22;6337198;22;20002;-84
2022/10/10 11:07:33;;;;;;;6.00;3.20;;;;;;;20.71;51.06;101294.91;6334711;22;20013;-84
2022/10/10 11:10:08;;;;;;;;;;;;;;;21.85;50.61;101310.94;6337119;22;20011;-85
2022/10/10 11:13:00;;;;;;;7.68;3.53;;;;;;;22.06;48.82;101299.97;6337609;22;19990;-84
2022/10/10 11:15:31;;;;;;;7.60;3.88;;;;;;;22.57;45.94;101314.28;6337349;22;20006;-84
2022/10/10 11:18:02;;;;;;;7.18;3.45;;;;;;;21.98;46.55;101312.53;6337458;22;20071;-84
2022/10/10 11:20:37;;;;;;;6.35;3.35;;;;;;;21.41;48.56;101308.69;6308556;22;20010;-84
2022/10/10 11:23:17;;;;;;;8.73;3.60;;;;;;;21.04;49.83;101304.66;6337943;22;20006;-84
2022/10/10 11:25:55;;;;;;;7.90;3.28;;;;;;;21.02;49.28;101324.72;6344245;22;20003;-85
2022/10/10 11:28:32;;;;;;;8.13;3.60;;;;;;;20.71;50.27;101311.16;6348813;22;20009;-84
2022/10/10 11:31:01;;;;;;;8.98;3.78;;;;;;;20.91;50.51;101314.84;6343128;22;20006;-84
2022/10/10 11:33:32;;;;;;;7.72;3.80;;;;;;;22.22;48.32;101320.28;6343243;22;20093;-84